Time;durP1;ratioP1;P1;durP2;ratioP2;P2;SDS_P1;SDS_P2;PMS_P1;PMS_P2;Temp;Humidity;BMP_temperature;BMP_pressure;BME280_temperature;BME280_humidity;BME280_pressure;Samples;Min_cycle;Max_cycle;Signal;HPM_P1;HPM_P2
2023/04/11 00:00:17;;;;;;;;;;;10.40;99.90;;;;;;5097120;28;20039;-64
2023/04/11 00:02:43;;;;;;;;;;;10.30;99.90;;;;;;5096885;28;19988;-62
2023/04/11 00:05:09;;;;;;;;;;;10.30;99.90;;;;;;5096618;28;20332;-62
2023/04/11 00:07:35;;;;;;;;;;;10.20;99.90;;;;;;5097197;28;20083;-63
2023/04/11 00:10:01;;;;;;;;;;;10.20;99.90;;;;;;5096667;28;19993;-63
2023/04/11 00:12:26;;;;;;;;;;;10.30;99.90;;;;;;5096720;28;19989;-63
2023/04/11 00:14:52;;;;;;;;;;;10.30;99.90;;;;;;5096337;28;20470;-62
2023/04/11 00:17:18;;;;;;;;;;;10.30;99.90;;;;;;5096553;28;20037;-62
2023/04/11 00:19:47;;;;;;;;;;;10.20;99.90;;;;;;5096061;28;20140;-64
2023/04/11 00:22:14;;;;;;;;;;;10.10;99.90;;;;;;5096289;28;20082;-62
2023/04/11 00:24:40;;;;;;;;;;;10.10;99.90;;;;;;5096634;28;20047;-64
2023/04/11 00:27:06;;;;;;;;;;;10.00;99.90;;;;;;5096318;28;20028;-63
2023/04/11 00:29:32;;;;;;;;;;;10.00;99.90;;;;;;5096158;28;19996;-62
2023/04/11 00:31:58;;;;;;;;;;;10.10;99.90;;;;;;5096272;28;19992;-63
2023/04/11 00:34:24;;;;;;;;;;;10.10;99.90;;;;;;5095701;28;20367;-64
2023/04/11 00:36:50;;;;;;;;;;;10.20;99.90;;;;;;5096047;28;20009;-64
2023/04/11 00:39:19;;;;;;;;;;;10.20;99.90;;;;;;5096114;28;20446;-64
2023/04/11 00:41:45;;;;;;;;;;;10.10;99.90;;;;;;5096089;28;20506;-62
2023/04/11 00:44:11;;;;;;;;;;;10.10;99.90;;;;;;5095862;28;20083;-64
2023/04/11 00:46:38;;;;;;;;;;;10.00;99.90;;;;;;5096265;28;20079;-64
2023/04/11 00:49:04;;;;;;;;;;;10.00;99.90;;;;;;5096006;28;20084;-64
2023/04/11 00:51:29;;;;;;;;;;;10.10;99.90;;;;;;5095830;28;20072;-64
2023/04/11 00:53:55;;;;;;;;;;;10.10;99.90;;;;;;5095721;28;19993;-63
2023/04/11 00:56:21;;;;;;;;;;;10.00;99.90;;;;;;5095735;28;20009;-64
2023/04/11 00:58:47;;;;;;;;;;;10.00;99.90;;;;;;5096005;28;19989;-62
2023/04/11 01:01:15;;;;;;;;;;;9.90;99.90;;;;;;5095638;28;20379;-63
2023/04/11 01:03:40;;;;;;;;;;;9.90;99.90;;;;;;5095682;28;20088;-62
2023/04/11 01:06:10;;;;;;;;;;;10.10;99.90;;;;;;5095650;28;20068;-63
2023/04/11 01:08:37;;;;;;;;;;;10.10;99.90;;;;;;5095738;28;20363;-63
2023/04/11 01:11:02;;;;;;;;;;;10.10;99.90;;;;;;5095506;28;19985;-62
2023/04/11 01:13:32;;;;;;;;;;;10.20;99.90;;;;;;5095464;28;20008;-64
2023/04/11 01:15:58;;;;;;;;;;;10.10;99.90;;;;;;5095166;28;20034;-63
2023/04/11 01:18:24;;;;;;;;;;;10.00;99.90;;;;;;5095168;28;20080;-63
2023/04/11 01:20:50;;;;;;;;;;;10.00;99.90;;;;;;5095532;28;20355;-62
2023/04/11 01:23:33;;;;;;;;;;;10.00;99.90;;;;;;5095186;28;20071;-64
2023/04/11 01:25:59;;;;;;;;;;;9.90;99.90;;;;;;5095155;28;20042;-64
2023/04/11 01:28:25;;;;;;;;;;;10.00;99.90;;;;;;5095394;28;19989;-62
2023/04/11 01:30:50;;;;;;;;;;;10.10;99.90;;;;;;5095147;28;20415;-63
2023/04/11 01:33:16;;;;;;;;;;;10.10;99.90;;;;;;5095284;28;19992;-63
2023/04/11 01:35:42;;;;;;;;;;;10.10;99.90;;;;;;5094865;28;20604;-63
2023/04/11 01:38:07;;;;;;;;;;;10.10;99.90;;;;;;5095134;28;20013;-64
2023/04/11 01:40:33;;;;;;;;;;;10.00;99.90;;;;;;5094833;28;20425;-64
2023/04/11 01:43:00;;;;;;;;;;;10.00;99.90;;;;;;5094826;28;19985;-64
2023/04/11 01:45:26;;;;;;;;;;;10.00;99.90;;;;;;5094711;28;20027;-63
2023/04/11 01:47:54;;;;;;;;;;;10.10;99.90;;;;;;5094587;28;19985;-64
2023/04/11 01:50:20;;;;;;;;;;;10.10;99.90;;;;;;5094747;28;20194;-63
2023/04/11 01:52:47;;;;;;;;;;;10.10;99.90;;;;;;5094603;28;20560;-64
2023/04/11 01:55:12;;;;;;;;;;;10.10;99.90;;;;;;5094667;28;20080;-64
2023/04/11 01:57:38;;;;;;;;;;;10.10;99.90;;;;;;5094581;28;20107;-61
2023/04/11 02:00:10;;;;;;;;;;;10.10;99.90;;;;;;5094261;28;19985;-64
2023/04/11 02:02:36;;;;;;;;;;;10.10;99.90;;;;;;5094803;28;19996;-62
2023/04/11 02:05:02;;;;;;;;;;;10.10;99.90;;;;;;5094472;28;20343;-62
2023/04/11 02:07:27;;;;;;;;;;;10.00;99.90;;;;;;5094355;28;19992;-63
2023/04/11 02:09:53;;;;;;;;;;;10.00;99.90;;;;;;5094500;28;19985;-63
2023/04/11 02:12:18;;;;;;;;;;;10.00;99.90;;;;;;5094437;28;20021;-64
2023/04/11 02:14:44;;;;;;;;;;;10.00;99.90;;;;;;5094284;28;20005;-64
2023/04/11 02:17:10;;;;;;;;;;;10.00;99.90;;;;;;5094207;28;20391;-63
2023/04/11 02:19:37;;;;;;;;;;;10.00;99.90;;;;;;5094247;28;19989;-63
2023/04/11 02:22:02;;;;;;;;;;;9.90;99.90;;;;;;5094376;28;20400;-62
2023/04/11 02:24:28;;;;;;;;;;;9.70;99.90;;;;;;5094145;28;20115;-62
2023/04/11 02:26:53;;;;;;;;;;;9.60;99.90;;;;;;5094442;28;20075;-62
2023/04/11 02:29:19;;;;;;;;;;;9.70;99.90;;;;;;5093895;28;19985;-64
2023/04/11 02:31:47;;;;;;;;;;;9.80;99.90;;;;;;5094003;28;20084;-64
2023/04/11 02:34:12;;;;;;;;;;;9.80;99.90;;;;;;5093826;28;19985;-62
2023/04/11 02:36:38;;;;;;;;;;;9.80;99.90;;;;;;5093971;28;20130;-64
2023/04/11 02:39:03;;;;;;;;;;;9.80;99.90;;;;;;5093912;28;19985;-64
2023/04/11 02:41:29;;;;;;;;;;;9.80;99.90;;;;;;5093959;28;19985;-62
2023/04/11 02:43:54;;;;;;;;;;;9.80;99.90;;;;;;5093368;28;19991;-62
2023/04/11 02:46:21;;;;;;;;;;;9.90;99.90;;;;;;5094055;28;19989;-62
2023/04/11 02:48:46;;;;;;;;;;;9.90;99.90;;;;;;5093813;28;19993;-63
2023/04/11 02:51:12;;;;;;;;;;;9.90;99.90;;;;;;5093822;28;20039;-62
2023/04/11 02:53:37;;;;;;;;;;;9.70;99.90;;;;;;5093697;28;19986;-63
2023/04/11 02:56:03;;;;;;;;;;;9.70;99.90;;;;;;5092399;28;20016;-63
2023/04/11 02:58:29;;;;;;;;;;;9.70;99.90;;;;;;5093567;28;19989;-61
2023/04/11 03:00:55;;;;;;;;;;;9.80;99.90;;;;;;5093732;28;19989;-61
2023/04/11 03:03:20;;;;;;;;;;;9.70;99.90;;;;;;5093606;28;19985;-64
2023/04/11 03:05:46;;;;;;;;;;;9.60;99.90;;;;;;5093800;28;19989;-63
2023/04/11 03:08:11;;;;;;;;;;;9.50;99.90;;;;;;5093734;28;19989;-64
2023/04/11 03:10:37;;;;;;;;;;;9.40;99.90;;;;;;5093820;28;19989;-63
2023/04/11 03:13:02;;;;;;;;;;;9.40;99.90;;;;;;5093709;28;20435;-64
2023/04/11 03:15:31;;;;;;;;;;;9.40;99.90;;;;;;5093618;28;20397;-62
2023/04/11 03:17:56;;;;;;;;;;;9.50;99.90;;;;;;5093401;28;20098;-63
2023/04/11 03:20:22;;;;;;;;;;;9.50;99.90;;;;;;5093671;28;19989;-63
2023/04/11 03:22:48;;;;;;;;;;;9.60;99.90;;;;;;5093489;28;20040;-64
2023/04/11 03:25:14;;;;;;;;;;;9.70;99.90;;;;;;5093442;28;19989;-62
2023/04/11 03:27:40;;;;;;;;;;;9.70;99.90;;;;;;5093320;28;20038;-63
2023/04/11 03:30:06;;;;;;;;;;;9.60;99.90;;;;;;5093559;28;19985;-61
2023/04/11 03:32:32;;;;;;;;;;;9.40;99.90;;;;;;5093722;28;19989;-63
2023/04/11 03:34:59;;;;;;;;;;;9.30;99.90;;;;;;5093326;28;20403;-62
2023/04/11 03:37:24;;;;;;;;;;;9.40;99.90;;;;;;5093313;28;20054;-62
2023/04/11 03:39:50;;;;;;;;;;;9.50;99.90;;;;;;5093503;28;20407;-63
2023/04/11 03:42:16;;;;;;;;;;;9.60;99.90;;;;;;5093046;28;20011;-63
2023/04/11 03:44:41;;;;;;;;;;;9.60;99.90;;;;;;5093640;28;19989;-63
2023/04/11 03:47:07;;;;;;;;;;;9.60;99.90;;;;;;5093310;28;19989;-63
2023/04/11 03:49:32;;;;;;;;;;;9.60;99.90;;;;;;5093253;28;19986;-63
2023/04/11 03:51:58;;;;;;;;;;;9.60;99.90;;;;;;5093554;28;20024;-62
2023/04/11 03:54:23;;;;;;;;;;;9.60;99.90;;;;;;5093257;28;20431;-64
2023/04/11 03:56:49;;;;;;;;;;;9.60;99.90;;;;;;5095671;28;20016;-63
2023/04/11 03:59:14;;;;;;;;;;;9.40;99.90;;;;;;5096878;28;19985;-63
2023/04/11 04:01:40;;;;;;;;;;;9.40;99.90;;;;;;5096878;28;20016;-64
2023/04/11 04:04:06;;;;;;;;;;;9.40;99.90;;;;;;5097062;28;19992;-63
2023/04/11 04:06:31;;;;;;;;;;;9.50;99.90;;;;;;5096926;28;19989;-61
2023/04/11 04:08:58;;;;;;;;;;;9.50;99.90;;;;;;5096764;28;19984;-63
2023/04/11 04:11:24;;;;;;;;;;;9.60;99.90;;;;;;5096367;28;19989;-61
2023/04/11 04:13:49;;;;;;;;;;;9.60;99.90;;;;;;5096419;28;20001;-64
2023/04/11 04:16:16;;;;;;;;;;;9.60;99.90;;;;;;5096565;28;20009;-64
2023/04/11 04:18:41;;;;;;;;;;;9.60;99.90;;;;;;5096464;28;19989;-64
2023/04/11 04:21:07;;;;;;;;;;;9.60;99.90;;;;;;5096470;28;19992;-62
2023/04/11 04:23:34;;;;;;;;;;;9.70;99.90;;;;;;5096562;28;20436;-62
2023/04/11 04:26:01;;;;;;;;;;;9.70;99.90;;;;;;5096447;28;20012;-63
2023/04/11 04:28:27;;;;;;;;;;;9.60;99.90;;;;;;5096554;28;19993;-61
2023/04/11 04:30:56;;;;;;;;;;;9.60;99.90;;;;;;5096266;28;19992;-63
2023/04/11 04:33:22;;;;;;;;;;;9.70;99.90;;;;;;5096371;28;19993;-63
2023/04/11 04:35:50;;;;;;;;;;;9.70;99.90;;;;;;5095972;28;20020;-64
2023/04/11 04:38:18;;;;;;;;;;;9.80;99.90;;;;;;5095152;28;20385;-63
2023/04/11 04:40:44;;;;;;;;;;;9.80;99.90;;;;;;5095930;28;19985;-63
2023/04/11 04:43:17;;;;;;;;;;;9.90;99.90;;;;;;5095969;28;19992;-62
2023/04/11 04:45:43;;;;;;;;;;;9.90;99.90;;;;;;5096098;28;20050;-62
2023/04/11 04:48:09;;;;;;;;;;;9.90;99.90;;;;;;5095911;28;19989;-63
2023/04/11 04:50:35;;;;;;;;;;;9.80;99.90;;;;;;5095835;28;20094;-63
2023/04/11 04:53:00;;;;;;;;;;;9.80;99.90;;;;;;5095721;28;20030;-64
2023/04/11 04:55:27;;;;;;;;;;;9.90;99.90;;;;;;5095549;28;20038;-63
2023/04/11 04:57:53;;;;;;;;;;;9.90;99.90;;;;;;5095604;28;20009;-63
2023/04/11 05:00:19;;;;;;;;;;;9.90;99.90;;;;;;5095295;28;20352;-63
2023/04/11 05:02:44;;;;;;;;;;;9.90;99.90;;;;;;5094864;28;20029;-62
2023/04/11 05:05:12;;;;;;;;;;;9.90;99.90;;;;;;5093171;28;19989;-63
2023/04/11 05:07:37;;;;;;;;;;;9.90;99.90;;;;;;5092892;28;20358;-62
2023/04/11 05:10:03;;;;;;;;;;;10.00;99.90;;;;;;5095140;28;19985;-64
2023/04/11 05:12:29;;;;;;;;;;;10.00;99.90;;;;;;5095430;28;19985;-62
2023/04/11 05:14:55;;;;;;;;;;;10.10;99.90;;;;;;5095221;28;20007;-62
2023/04/11 05:17:22;;;;;;;;;;;10.10;99.90;;;;;;5095444;28;20020;-65
2023/04/11 05:19:47;;;;;;;;;;;10.10;99.90;;;;;;5095043;28;19985;-62
2023/04/11 05:22:13;;;;;;;;;;;10.10;99.90;;;;;;5095071;28;19985;-63
2023/04/11 05:24:39;;;;;;;;;;;10.20;99.90;;;;;;5094798;28;20087;-65
2023/04/11 05:27:04;;;;;;;;;;;10.20;99.90;;;;;;5094839;28;19988;-64
2023/04/11 05:29:30;;;;;;;;;;;10.30;99.90;;;;;;5092843;28;20035;-65
2023/04/11 05:31:56;;;;;;;;;;;10.40;99.90;;;;;;5094568;28;19996;-63
2023/04/11 05:34:21;;;;;;;;;;;10.30;99.90;;;;;;5094654;28;19993;-63
2023/04/11 05:36:47;;;;;;;;;;;10.30;99.90;;;;;;5094677;28;20034;-64
2023/04/11 05:39:12;;;;;;;;;;;10.40;99.90;;;;;;5093539;28;20080;-64
2023/04/11 05:41:38;;;;;;;;;;;10.60;99.90;;;;;;5094613;28;19989;-62
2023/04/11 05:44:04;;;;;;;;;;;10.70;99.90;;;;;;5092626;28;19986;-63
2023/04/11 05:46:29;;;;;;;;;;;10.80;99.90;;;;;;5092815;28;20114;-63
2023/04/11 05:48:57;;;;;;;;;;;11.00;99.90;;;;;;5092775;28;19985;-62
2023/04/11 05:51:23;;;;;;;;;;;11.10;99.90;;;;;;5092438;28;19992;-64
2023/04/11 05:53:49;;;;;;;;;;;11.20;99.90;;;;;;5091776;28;19989;-63
2023/04/11 05:56:15;;;;;;;;;;;11.30;99.90;;;;;;5093202;28;20008;-65
2023/04/11 05:58:41;;;;;;;;;;;11.40;99.90;;;;;;5093279;28;20038;-63
2023/04/11 06:01:11;;;;;;;;;;;11.40;99.90;;;;;;5093629;28;20075;-63
2023/04/11 06:03:37;;;;;;;;;;;11.30;99.90;;;;;;5093253;28;20074;-63
2023/04/11 06:06:05;;;;;;;;;;;11.20;99.90;;;;;;5092223;28;20213;-64
2023/04/11 06:08:30;;;;;;;;;;;11.10;99.90;;;;;;5091739;28;20029;-65
2023/04/11 06:10:59;;;;;;;;;;;11.00;99.90;;;;;;5085836;28;20036;-63
2023/04/11 06:13:25;;;;;;;;;;;11.00;99.90;;;;;;5090917;28;19989;-64
2023/04/11 06:15:50;;;;;;;;;;;11.00;99.90;;;;;;5092656;28;20028;-65
2023/04/11 06:18:22;;;;;;;;;;;11.00;99.90;;;;;;5091469;28;20516;-65
2023/04/11 06:20:50;;;;;;;;;;;11.00;99.90;;;;;;5092006;28;19989;-65
2023/04/11 06:23:16;;;;;;;;;;;11.20;99.90;;;;;;5092972;28;20131;-64
2023/04/11 06:25:44;;;;;;;;;;;11.10;99.90;;;;;;5090290;28;20099;-63
2023/04/11 06:28:15;;;;;;;;;;;11.10;99.90;;;;;;5092081;28;20319;-64
2023/04/11 06:30:42;;;;;;;;;;;11.10;99.90;;;;;;5092018;28;20439;-67
2023/04/11 06:33:09;;;;;;;;;;;11.10;99.90;;;;;;5091089;28;19992;-66
2023/04/11 06:35:37;;;;;;;;;;;11.20;99.90;;;;;;5090508;28;20036;-63
2023/04/11 06:38:02;;;;;;;;;;;11.30;99.90;;;;;;5086904;28;20471;-64
2023/04/11 06:40:30;;;;;;;;;;;11.30;99.90;;;;;;5091126;28;20300;-63
2023/04/11 06:42:57;;;;;;;;;;;11.30;99.90;;;;;;5091934;28;19993;-61
2023/04/11 06:45:23;;;;;;;;;;;11.20;99.90;;;;;;5089613;28;20116;-63
2023/04/11 06:47:48;;;;;;;;;;;11.40;99.90;;;;;;5102482;28;20462;-65
2023/04/11 06:50:14;;;;;;;;;;;11.60;99.90;;;;;;5099932;28;20355;-65
2023/04/11 06:52:39;;;;;;;;;;;12.00;99.90;;;;;;5092564;28;19992;-64
2023/04/11 06:55:07;;;;;;;;;;;12.20;99.90;;;;;;5086522;28;20042;-63
2023/04/11 06:57:33;;;;;;;;;;;12.60;99.90;;;;;;5073969;28;20013;-64
2023/04/11 06:59:58;;;;;;;;;;;13.00;99.90;;;;;;5075807;28;20104;-65
2023/04/11 07:02:24;;;;;;;;;;;13.60;99.90;;;;;;5069968;28;20489;-65
2023/04/11 07:04:50;;;;;;;;;;;14.20;96.60;;;;;;5072995;28;20422;-63
2023/04/11 07:07:16;;;;;;;;;;;15.40;95.80;;;;;;5081159;28;19989;-63
2023/04/11 07:09:42;;;;;;;;;;;16.30;79.50;;;;;;5076552;28;20444;-62
2023/04/11 07:12:08;;;;;;;;;;;16.50;75.00;;;;;;5082866;28;20045;-63
2023/04/11 07:18:01;;;;;;;;;;;16.60;75.00;;;;;;5076162;28;20024;-61
2023/04/11 07:20:27;;;;;;;;;;;17.90;64.50;;;;;;5073935;28;19997;-62
2023/04/11 07:22:52;;;;;;;;;;;19.00;59.00;;;;;;5071418;28;20005;-61
2023/04/11 07:25:21;;;;;;;;;;;19.70;57.20;;;;;;5081289;28;19989;-63
2023/04/11 07:27:48;;;;;;;;;;;20.70;53.90;;;;;;5087917;28;20393;-64
2023/04/11 07:30:14;;;;;;;;;;;21.70;50.80;;;;;;5072835;28;19993;-64
2023/04/11 07:32:42;;;;;;;;;;;22.40;46.30;;;;;;5080828;28;20340;-66
2023/04/11 07:35:34;;;;;;;;;;;23.20;45.80;;;;;;5080383;28;20021;-65
2023/04/11 07:38:00;;;;;;;;;;;23.40;41.60;;;;;;5104749;28;20125;-65
2023/04/11 07:40:29;;;;;;;;;;;23.60;42.90;;;;;;5088314;28;20044;-62
2023/04/11 07:42:55;;;;;;;;;;;23.90;41.50;;;;;;5076028;28;20122;-64
2023/04/11 07:45:21;;;;;;;;;;;25.00;40.40;;;;;;5100465;28;20148;-64
2023/04/11 07:47:46;;;;;;;;;;;26.10;38.60;;;;;;5076405;28;19993;-64
2023/04/11 07:50:12;;;;;;;;;;;26.30;35.60;;;;;;5082311;28;20007;-63
2023/04/11 07:52:38;;;;;;;;;;;25.80;35.10;;;;;;5077537;28;20096;-64
2023/04/11 07:55:03;;;;;;;;;;;26.10;36.00;;;;;;5079299;28;20359;-62
2023/04/11 07:57:32;;;;;;;;;;;26.00;36.20;;;;;;5080941;28;20016;-64
2023/04/11 08:00:01;;;;;;;;;;;25.60;36.10;;;;;;5087935;28;19989;-64
2023/04/11 08:02:27;;;;;;;;;;;25.60;35.10;;;;;;5075712;28;20061;-64
2023/04/11 08:04:53;;;;;;;;;;;25.20;34.80;;;;;;5082635;28;20068;-65
2023/04/11 08:07:19;;;;;;;;;;;25.20;36.40;;;;;;5082080;28;19997;-63
2023/04/11 08:09:44;;;;;;;;;;;25.60;36.40;;;;;;5084951;28;19988;-64
2023/04/11 08:12:10;;;;;;;;;;;26.50;34.80;;;;;;5089128;28;19994;-67
2023/04/11 08:14:43;;;;;;;;;;;26.80;35.20;;;;;;5078552;28;20070;-67
2023/04/11 08:17:13;;;;;;;;;;;27.40;33.70;;;;;;5078489;28;20053;-63
2023/04/11 08:19:39;;;;;;;;;;;27.40;32.30;;;;;;5087004;28;19992;-65
2023/04/11 08:22:04;;;;;;;;;;;27.60;34.00;;;;;;5084816;28;20411;-64
2023/04/11 08:24:30;;;;;;;;;;;27.10;32.10;;;;;;5081517;28;19993;-65
2023/04/11 08:26:55;;;;;;;;;;;25.70;33.80;;;;;;5089784;28;20259;-64
2023/04/11 08:29:21;;;;;;;;;;;25.20;35.20;;;;;;5083900;28;20050;-63
2023/04/11 08:31:50;;;;;;;;;;;24.80;35.30;;;;;;5079855;28;19988;-64
2023/04/11 08:34:18;;;;;;;;;;;24.30;35.40;;;;;;5076821;28;20355;-64
2023/04/11 08:36:43;;;;;;;;;;;23.10;36.90;;;;;;5089329;28;20044;-64
2023/04/11 08:39:09;;;;;;;;;;;21.80;37.40;;;;;;5084305;28;20055;-66
2023/04/11 08:41:43;;;;;;;;;;;21.20;39.30;;;;;;5072774;28;20339;-64
2023/04/11 08:44:18;;;;;;;;;;;20.80;39.30;;;;;;5092750;28;20435;-65
2023/04/11 08:46:47;;;;;;;;;;;21.20;39.90;;;;;;5088762;28;20031;-67
2023/04/11 08:49:23;;;;;;;;;;;21.70;37.70;;;;;;5091292;28;20028;-68
2023/04/11 08:52:11;;;;;;;;;;;21.60;38.70;;;;;;5088252;28;19997;-66
2023/04/11 08:54:40;;;;;;;;;;;21.10;40.70;;;;;;5085118;27;19993;-63
2023/04/11 08:57:13;;;;;;;;;;;21.20;39.20;;;;;;5088610;28;20069;-66
2023/04/11 09:00:10;;;;;;;;;;;20.90;39.50;;;;;;5089699;28;20054;-64
2023/04/11 09:03:15;;;;;;;;;;;21.00;38.50;;;;;;5085881;28;20455;-64
2023/04/11 09:06:08;;;;;;;;;;;21.00;37.70;;;;;;5076500;28;20000;-63
2023/04/11 09:08:38;;;;;;;;;;;20.50;40.50;;;;;;5083064;28;20001;-62
2023/04/11 09:11:12;;;;;;;;;;;20.80;39.90;;;;;;5091051;28;20006;-62
2023/04/11 09:13:42;;;;;;;;;;;21.40;38.30;;;;;;5088190;28;20004;-62
2023/04/11 09:16:10;;;;;;;;;;;21.50;38.40;;;;;;5088400;28;19993;-64
2023/04/11 09:18:41;;;;;;;;;;;22.30;38.20;;;;;;5099671;28;20465;-63
2023/04/11 09:21:10;;;;;;;;;;;22.60;39.00;;;;;;5103632;28;20020;-63
2023/04/11 09:23:36;;;;;;;;;;;23.10;38.80;;;;;;5100363;28;20004;-64
2023/04/11 09:26:05;;;;;;;;;;;23.00;36.80;;;;;;5098098;28;20005;-65
2023/04/11 09:28:42;;;;;;;;;;;23.20;37.70;;;;;;5092318;28;20026;-66
2023/04/11 09:31:07;;;;;;;;;;;23.30;37.30;;;;;;5091185;28;20030;-64
2023/04/11 09:33:33;;;;;;;;;;;23.60;37.70;;;;;;5087715;28;20024;-62
2023/04/11 09:35:59;;;;;;;;;;;23.80;38.90;;;;;;5086357;28;20025;-65
2023/04/11 09:38:29;;;;;;;;;;;24.10;35.60;;;;;;5093396;28;20016;-66
2023/04/11 09:40:55;;;;;;;;;;;23.90;34.70;;;;;;5093430;28;20079;-65
2023/04/11 09:43:21;;;;;;;;;;;23.60;38.40;;;;;;5085680;28;20107;-61
2023/04/11 09:45:46;;;;;;;;;;;23.70;40.40;;;;;;5093538;28;19992;-64
2023/04/11 09:48:12;;;;;;;;;;;23.90;38.00;;;;;;5099127;28;20451;-62
2023/04/11 09:50:38;;;;;;;;;;;23.70;37.70;;;;;;5091591;28;19989;-62
2023/04/11 09:53:04;;;;;;;;;;;23.80;36.10;;;;;;5092294;28;20091;-63
2023/04/11 09:55:36;;;;;;;;;;;24.30;35.60;;;;;;5097722;28;20011;-62
2023/04/11 09:58:04;;;;;;;;;;;24.60;34.90;;;;;;5079971;28;20024;-62
2023/04/11 10:00:31;;;;;;;;;;;24.90;34.70;;;;;;5089176;28;20395;-61
2023/04/11 10:02:56;;;;;;;;;;;24.80;33.60;;;;;;5096901;28;20000;-61
2023/04/11 10:05:26;;;;;;;;;;;24.40;35.60;;;;;;5099914;28;19989;-62
2023/04/11 10:08:07;;;;;;;;;;;24.50;34.30;;;;;;5098471;28;20015;-61
2023/04/11 10:10:36;;;;;;;;;;;24.80;34.00;;;;;;5095192;28;19989;-64
2023/04/11 10:13:23;;;;;;;;;;;24.80;34.10;;;;;;5099200;28;19985;-64
2023/04/11 10:16:08;;;;;;;;;;;25.00;36.90;;;;;;5092554;28;20041;-62
2023/04/11 10:18:34;;;;;;;;;;;24.70;34.30;;;;;;5084609;28;20051;-62
2023/04/11 10:21:00;;;;;;;;;;;24.20;33.00;;;;;;5073767;28;19993;-61
2023/04/11 10:23:26;;;;;;;;;;;23.70;33.80;;;;;;5073438;28;20470;-62
2023/04/11 10:25:52;;;;;;;;;;;24.00;32.40;;;;;;5103971;28;20482;-63
2023/04/11 10:28:35;;;;;;;;;;;23.80;34.40;;;;;;5088636;28;19997;-64
2023/04/11 10:31:23;;;;;;;;;;;23.50;34.10;;;;;;5075457;28;19985;-63
2023/04/11 10:34:16;;;;;;;;;;;23.60;36.00;;;;;;5087483;28;20049;-62
2023/04/11 10:37:12;;;;;;;;;;;23.60;35.50;;;;;;5093674;28;20075;-65
2023/04/11 10:39:47;;;;;;;;;;;23.50;36.30;;;;;;5078084;28;20000;-63
2023/04/11 10:42:28;;;;;;;;;;;23.70;37.00;;;;;;5086335;28;19985;-63
2023/04/11 10:45:14;;;;;;;;;;;24.10;36.90;;;;;;5082734;28;20001;-63
2023/04/11 10:47:43;;;;;;;;;;;24.70;34.40;;;;;;5077594;28;20307;-62
2023/04/11 10:50:36;;;;;;;;;;;24.80;34.70;;;;;;5088328;28;19989;-62
2023/04/11 10:53:05;;;;;;;;;;;25.00;33.50;;;;;;5085112;28;20092;-62
2023/04/11 10:55:43;;;;;;;;;;;25.00;33.50;;;;;;5093433;28;20075;-63
2023/04/11 10:58:10;;;;;;;;;;;25.00;32.30;;;;;;5092788;28;20019;-64
2023/04/11 11:00:52;;;;;;;;;;;25.40;32.90;;;;;;5094724;28;19996;-62
2023/04/11 11:03:22;;;;;;;;;;;25.70;32.20;;;;;;5086631;28;19985;-63
2023/04/11 11:05:56;;;;;;;;;;;26.00;32.70;;;;;;5103932;28;19992;-60
2023/04/11 11:08:29;;;;;;;;;;;25.80;36.60;;;;;;5106835;28;20082;-62
2023/04/11 11:11:01;;;;;;;;;;;25.90;35.50;;;;;;5098481;28;19989;-61
2023/04/11 11:13:43;;;;;;;;;;;25.50;33.50;;;;;;5104407;28;20087;-62
2023/04/11 11:16:12;;;;;;;;;;;25.60;37.80;;;;;;5102120;28;19988;-61
2023/04/11 11:18:38;;;;;;;;;;;25.90;36.60;;;;;;5103043;28;20051;-65
2023/04/11 11:21:04;;;;;;;;;;;25.70;31.40;;;;;;5084941;28;20001;-65
2023/04/11 11:23:30;;;;;;;;;;;25.40;33.40;;;;;;5077608;28;20328;-63
2023/04/11 11:25:57;;;;;;;;;;;25.30;31.90;;;;;;5073956;28;20005;-64
2023/04/11 11:28:23;;;;;;;;;;;25.30;31.30;;;;;;5074587;28;20076;-64
2023/04/11 11:30:52;;;;;;;;;;;25.80;31.80;;;;;;5070183;28;20093;-63
2023/04/11 11:33:19;;;;;;;;;;;25.70;30.10;;;;;;5079844;28;19989;-63
2023/04/11 11:35:55;;;;;;;;;;;26.00;32.90;;;;;;5077442;28;20028;-62
2023/04/11 11:38:24;;;;;;;;;;;26.30;30.90;;;;;;5091727;28;20022;-64
2023/04/11 11:40:50;;;;;;;;;;;25.70;29.80;;;;;;5102082;28;19989;-63
2023/04/11 11:43:16;;;;;;;;;;;25.40;31.20;;;;;;5102640;28;20292;-63
2023/04/11 11:45:41;;;;;;;;;;;25.40;33.70;;;;;;5102514;28;20011;-63
2023/04/11 11:48:18;;;;;;;;;;;25.70;31.20;;;;;;5104546;28;19985;-63
2023/04/11 11:50:43;;;;;;;;;;;26.00;31.40;;;;;;5104443;28;20083;-64
2023/04/11 11:53:15;;;;;;;;;;;26.30;33.40;;;;;;5102099;28;20076;-63
2023/04/11 11:55:41;;;;;;;;;;;26.20;31.60;;;;;;5075344;28;19985;-63
2023/04/11 11:58:08;;;;;;;;;;;26.00;32.40;;;;;;5075471;28;20017;-63
2023/04/11 12:00:36;;;;;;;;;;;26.40;31.90;;;;;;5097677;28;20362;-63
2023/04/11 12:03:02;;;;;;;;;;;26.30;32.20;;;;;;5107073;28;20011;-63
2023/04/11 12:05:29;;;;;;;;;;;26.30;32.10;;;;;;5103434;28;19986;-63
2023/04/11 12:07:58;;;;;;;;;;;25.90;31.20;;;;;;5106591;28;20312;-63
2023/04/11 12:10:25;;;;;;;;;;;25.30;31.40;;;;;;5103095;28;20584;-64
2023/04/11 12:12:50;;;;;;;;;;;25.40;32.20;;;;;;5099164;28;20545;-64
2023/04/11 12:15:17;;;;;;;;;;;25.20;33.70;;;;;;5113921;28;20084;-63
2023/04/11 12:17:56;;;;;;;;;;;25.30;31.50;;;;;;5113723;28;20009;-64
2023/04/11 12:20:23;;;;;;;;;;;25.70;33.30;;;;;;5113152;28;19989;-63
2023/04/11 12:22:49;;;;;;;;;;;26.20;31.00;;;;;;5113999;28;19988;-63
2023/04/11 12:25:15;;;;;;;;;;;26.30;30.70;;;;;;5111935;28;19992;-64
2023/04/11 12:27:41;;;;;;;;;;;26.40;30.30;;;;;;5112839;28;20439;-62
2023/04/11 12:30:09;;;;;;;;;;;26.50;30.60;;;;;;5112677;28;20350;-63
2023/04/11 12:32:35;;;;;;;;;;;26.50;30.90;;;;;;5112492;28;19988;-63
2023/04/11 12:35:02;;;;;;;;;;;26.30;29.30;;;;;;5113640;28;20020;-62
2023/04/11 12:37:28;;;;;;;;;;;25.90;32.60;;;;;;5114599;28;20031;-62
2023/04/11 12:39:53;;;;;;;;;;;25.60;31.30;;;;;;5105683;28;19989;-62
2023/04/11 12:42:19;;;;;;;;;;;25.60;34.10;;;;;;5103569;28;20401;-62
2023/04/11 12:44:45;;;;;;;;;;;25.40;34.90;;;;;;5104716;28;20006;-62
2023/04/11 12:47:11;;;;;;;;;;;25.20;32.80;;;;;;5112137;28;20034;-62
2023/04/11 12:49:37;;;;;;;;;;;25.10;30.50;;;;;;5112247;28;19989;-62
2023/04/11 12:52:02;;;;;;;;;;;25.10;30.90;;;;;;5115635;28;19984;-62
2023/04/11 12:54:28;;;;;;;;;;;25.40;31.30;;;;;;5114582;28;20083;-63
2023/04/11 12:56:54;;;;;;;;;;;25.30;30.80;;;;;;5112529;28;20013;-62
2023/04/11 12:59:20;;;;;;;;;;;25.50;30.80;;;;;;5111392;28;19984;-62
2023/04/11 13:01:45;;;;;;;;;;;25.70;29.60;;;;;;5111365;28;20049;-62
2023/04/11 13:04:11;;;;;;;;;;;25.50;32.00;;;;;;5112489;28;19995;-62
2023/04/11 13:06:36;;;;;;;;;;;25.60;31.30;;;;;;5112795;28;20346;-62
2023/04/11 13:09:06;;;;;;;;;;;25.70;31.60;;;;;;5112779;28;19989;-62
2023/04/11 13:11:31;;;;;;;;;;;25.60;32.10;;;;;;5112452;28;19989;-62
2023/04/11 13:13:57;;;;;;;;;;;25.70;31.20;;;;;;5112252;28;19989;-62
2023/04/11 13:16:23;;;;;;;;;;;25.70;30.20;;;;;;5113415;28;20037;-62
2023/04/11 13:18:49;;;;;;;;;;;25.80;31.80;;;;;;5114511;28;20494;-62
2023/04/11 13:21:14;;;;;;;;;;;26.00;31.10;;;;;;5114969;28;20011;-62
2023/04/11 13:23:40;;;;;;;;;;;25.80;31.40;;;;;;5114862;28;20435;-62
2023/04/11 13:26:06;;;;;;;;;;;25.40;31.40;;;;;;5115206;28;20011;-62
2023/04/11 13:28:35;;;;;;;;;;;25.60;29.60;;;;;;5115081;28;20082;-62
2023/04/11 13:31:01;;;;;;;;;;;25.80;30.30;;;;;;5115736;28;20431;-62
2023/04/11 13:33:26;;;;;;;;;;;26.00;29.60;;;;;;5115543;28;20110;-62
2023/04/11 13:35:52;;;;;;;;;;;26.30;30.20;;;;;;5115158;28;20402;-62
2023/04/11 13:38:17;;;;;;;;;;;26.20;30.10;;;;;;5115143;28;20015;-62
2023/04/11 13:40:43;;;;;;;;;;;26.00;29.70;;;;;;5115375;27;19989;-62
2023/04/11 13:43:09;;;;;;;;;;;26.10;31.20;;;;;;5115208;28;19988;-63
2023/04/11 13:45:35;;;;;;;;;;;25.40;31.40;;;;;;5115278;28;19992;-62
2023/04/11 13:48:01;;;;;;;;;;;24.90;33.40;;;;;;5115505;28;20022;-62
2023/04/11 13:50:26;;;;;;;;;;;24.80;33.60;;;;;;5115095;28;20024;-62
2023/04/11 13:52:52;;;;;;;;;;;24.70;30.30;;;;;;5115217;28;20350;-62
2023/04/11 13:55:17;;;;;;;;;;;24.70;30.40;;;;;;5115047;28;19988;-62
2023/04/11 13:57:43;;;;;;;;;;;24.90;30.80;;;;;;5115259;28;20016;-62
2023/04/11 14:00:12;;;;;;;;;;;25.10;30.30;;;;;;5114888;28;20026;-62
2023/04/11 14:02:38;;;;;;;;;;;25.20;30.30;;;;;;5114939;28;20034;-62
2023/04/11 14:05:04;;;;;;;;;;;25.40;32.20;;;;;;5115180;28;19995;-62
2023/04/11 14:07:30;;;;;;;;;;;25.20;31.50;;;;;;5114568;28;19989;-62
2023/04/11 14:09:55;;;;;;;;;;;25.10;33.00;;;;;;5114836;28;19985;-62
2023/04/11 14:12:21;;;;;;;;;;;25.00;35.50;;;;;;5114829;28;20460;-62
2023/04/11 14:14:47;;;;;;;;;;;24.80;31.20;;;;;;5114646;28;20401;-62
2023/04/11 14:17:12;;;;;;;;;;;24.40;31.40;;;;;;5114658;28;20013;-62
2023/04/11 14:19:38;;;;;;;;;;;24.20;30.50;;;;;;5114738;28;20039;-62
2023/04/11 14:22:03;;;;;;;;;;;23.90;32.50;;;;;;5114358;28;19984;-62
2023/04/11 14:24:29;;;;;;;;;;;23.70;32.00;;;;;;5114699;28;19985;-63